createdAt,value
2019-03-03T00:00:37.181Z,55.00
2019-03-03T00:03:08.463Z,55.00
2019-03-03T00:05:39.733Z,55.35
2019-03-03T00:08:11.099Z,55.57
2019-03-03T00:10:42.698Z,54.85
2019-03-03T00:13:13.854Z,54.80
2019-03-03T00:15:45.466Z,54.81
2019-03-03T00:18:16.649Z,54.81
2019-03-03T00:20:48.165Z,55.15
2019-03-03T00:23:19.387Z,54.88
2019-03-03T00:25:50.570Z,54.76
2019-03-03T00:28:21.722Z,54.86
2019-03-03T00:30:52.809Z,55.15
2019-03-03T00:33:24.374Z,55.15
2019-03-03T00:35:55.763Z,55.28
2019-03-03T00:38:28.521Z,55.28
2019-03-03T00:41:14.594Z,54.99
2019-03-03T00:43:47.337Z,55.42
2019-03-03T00:46:26.105Z,55.20
2019-03-03T00:49:10.618Z,55.10
2019-03-03T00:51:51.277Z,55.34
2019-03-03T00:54:29.761Z,55.34
2019-03-03T00:57:03.605Z,55.53
2019-03-03T00:59:39.243Z,55.61
2019-03-03T01:02:14.774Z,55.50
2019-03-03T01:04:50.563Z,55.67
2019-03-03T01:07:23.333Z,56.02
2019-03-03T01:10:09.922Z,56.13
2019-03-03T01:12:42.720Z,56.13
2019-03-03T01:15:15.553Z,56.33
2019-03-03T01:17:54.534Z,55.82
2019-03-03T01:20:30.383Z,56.11
2019-03-03T01:23:19.683Z,56.25
2019-03-03T01:25:50.974Z,56.12
2019-03-03T01:28:23.296Z,56.28
2019-03-03T01:30:54.351Z,56.33
2019-03-03T01:33:25.704Z,56.27
2019-03-03T01:35:56.818Z,56.46
2019-03-03T01:38:27.966Z,56.45
2019-03-03T01:41:03.895Z,56.53
2019-03-03T01:43:35.540Z,56.68
2019-03-03T01:46:06.561Z,56.68
2019-03-03T01:48:37.879Z,56.75
2019-03-03T01:51:09.028Z,56.91
2019-03-03T01:53:40.265Z,57.44
2019-03-03T01:56:11.651Z,57.20
2019-03-03T01:58:42.918Z,57.06
2019-03-03T02:01:14.198Z,56.94
2019-03-03T02:03:45.343Z,57.09
2019-03-03T02:06:16.518Z,56.88
2019-03-03T02:08:48.274Z,56.88
2019-03-03T02:11:19.436Z,57.10
2019-03-03T02:13:50.666Z,57.32
2019-03-03T02:16:22.143Z,57.33
2019-03-03T02:18:53.364Z,57.49
2019-03-03T02:21:24.578Z,57.49
2019-03-03T02:23:55.881Z,57.43
2019-03-03T02:26:26.989Z,57.22
2019-03-03T02:28:58.307Z,57.23
2019-03-03T02:31:29.442Z,57.66
2019-03-03T02:34:00.595Z,57.30
2019-03-03T02:36:31.774Z,57.27
2019-03-03T02:39:04.689Z,57.32
2019-03-03T02:41:37.402Z,57.24
2019-03-03T02:44:08.627Z,57.63
2019-03-03T02:46:39.762Z,58.15
2019-03-03T02:49:11.048Z,57.23
2019-03-03T02:51:45.815Z,56.92
2019-03-03T02:54:16.944Z,56.25
2019-03-03T02:56:48.100Z,56.12
2019-03-03T02:59:19.290Z,56.42
2019-03-03T03:01:52.063Z,56.58
2019-03-03T03:04:23.520Z,56.58
2019-03-03T03:07:02.092Z,56.73
2019-03-03T03:09:35.072Z,56.88
2019-03-03T03:12:10.775Z,56.77
2019-03-03T03:14:49.751Z,56.60
2019-03-03T03:17:25.493Z,56.64
2019-03-03T03:19:58.246Z,56.85
2019-03-03T03:22:35.189Z,57.02
2019-03-03T03:25:17.750Z,57.26
2019-03-03T03:27:52.922Z,57.45
2019-03-03T03:30:25.766Z,57.47
2019-03-03T03:32:58.421Z,57.58
2019-03-03T03:35:33.967Z,57.58
2019-03-03T03:38:12.766Z,57.77
2019-03-03T03:40:45.625Z,58.27
2019-03-03T03:43:27.660Z,58.66
2019-03-03T03:46:09.730Z,59.00
2019-03-03T03:48:42.361Z,59.30
2019-03-03T03:51:24.473Z,59.51
2019-03-03T03:54:16.668Z,60.28
2019-03-03T03:56:55.145Z,60.38
2019-03-03T03:59:27.842Z,60.24
2019-03-03T04:02:03.719Z,60.49
2019-03-03T04:04:39.213Z,60.74
2019-03-03T04:07:12.015Z,60.79
2019-03-03T04:09:44.869Z,61.13
2019-03-03T04:12:37.920Z,61.43
2019-03-03T04:15:12.295Z,61.45
2019-03-03T04:17:47.963Z,61.58
2019-03-03T04:20:40.669Z,61.60
2019-03-03T04:23:16.190Z,61.77
2019-03-03T04:25:58.216Z,61.97
2019-03-03T04:28:33.933Z,61.84
2019-03-03T04:31:15.829Z,61.85
2019-03-03T04:34:01.068Z,62.09
2019-03-03T04:36:33.835Z,62.38
2019-03-03T04:39:07.943Z,62.31
2019-03-03T04:41:40.784Z,62.21
2019-03-03T04:44:13.554Z,62.53
2019-03-03T04:46:49.158Z,62.65
2019-03-03T04:49:38.325Z,62.39
2019-03-03T04:52:11.037Z,62.39
2019-03-03T04:54:53.017Z,62.55
2019-03-03T04:57:34.794Z,62.74
2019-03-03T05:00:29.189Z,63.01
2019-03-03T05:03:04.878Z,62.73
2019-03-03T05:05:53.593Z,63.01
2019-03-03T05:08:26.268Z,62.94
2019-03-03T05:11:04.832Z,63.19
2019-03-03T05:13:40.455Z,62.93
2019-03-03T05:16:29.505Z,62.70
2019-03-03T05:19:02.199Z,62.68
2019-03-03T05:21:34.484Z,62.72
2019-03-03T05:24:05.595Z,63.00
2019-03-03T05:26:36.809Z,63.28
2019-03-03T05:29:07.898Z,63.29
2019-03-03T05:31:39.137Z,62.81
2019-03-03T05:34:12.187Z,62.45
2019-03-03T05:36:43.508Z,62.50
2019-03-03T05:39:14.584Z,62.12
2019-03-03T05:41:45.835Z,62.26
2019-03-03T05:44:16.980Z,62.14
2019-03-03T05:46:48.563Z,61.96
2019-03-03T05:49:21.004Z,61.79
2019-03-03T05:51:52.254Z,61.58
2019-03-03T05:54:24.397Z,61.53
2019-03-03T05:56:55.673Z,61.63
2019-03-03T05:59:28.140Z,61.77
2019-03-03T06:01:59.337Z,61.40
2019-03-03T06:04:30.488Z,61.45
2019-03-03T06:07:01.562Z,61.64
2019-03-03T06:09:32.866Z,61.33
2019-03-03T06:12:03.893Z,60.92
2019-03-03T06:14:35.001Z,60.74
2019-03-03T06:17:11.571Z,61.14
2019-03-03T06:19:42.860Z,60.81
2019-03-03T06:22:14.004Z,60.71
2019-03-03T06:24:45.240Z,59.88
2019-03-03T06:27:16.814Z,59.74
2019-03-03T06:29:48.118Z,59.67
2019-03-03T06:32:19.288Z,59.65
2019-03-03T06:34:50.775Z,59.52
2019-03-03T06:37:22.153Z,59.47
2019-03-03T06:39:53.389Z,59.47
2019-03-03T06:42:24.630Z,59.67
2019-03-03T06:44:55.686Z,59.26
2019-03-03T06:47:26.964Z,59.26
2019-03-03T06:49:58.051Z,59.77
2019-03-03T06:52:29.167Z,59.67
2019-03-03T06:55:00.245Z,59.35
2019-03-03T06:57:31.610Z,59.82
2019-03-03T07:00:02.961Z,59.66
2019-03-03T07:02:35.199Z,58.80
2019-03-03T07:05:08.207Z,57.49
2019-03-03T07:07:39.512Z,57.58
2019-03-03T07:10:13.243Z,57.25
2019-03-03T07:12:44.350Z,57.16
2019-03-03T07:15:16.852Z,56.68
2019-03-03T07:17:47.980Z,56.05
2019-03-03T07:20:19.092Z,55.82
2019-03-03T07:22:50.456Z,54.66
2019-03-03T07:25:22.686Z,53.11
2019-03-03T07:27:54.295Z,53.11
2019-03-03T07:30:25.486Z,52.64
2019-03-03T07:33:04.343Z,52.30
2019-03-03T07:35:35.790Z,51.91
2019-03-03T07:38:07.286Z,52.43
2019-03-03T07:40:38.409Z,51.84
2019-03-03T07:43:09.607Z,52.04
2019-03-03T07:45:42.854Z,51.00
2019-03-03T07:48:14.111Z,50.06
2019-03-03T07:50:45.248Z,50.40
2019-03-03T07:53:16.310Z,49.40
2019-03-03T07:55:47.571Z,49.27
2019-03-03T07:58:19.874Z,48.28
2019-03-03T08:00:51.889Z,48.86
2019-03-03T08:03:23.250Z,47.94
2019-03-03T08:05:54.257Z,46.54
2019-03-03T08:08:25.636Z,46.51
2019-03-03T08:10:56.953Z,46.97
2019-03-03T08:13:28.212Z,46.15
2019-03-03T08:16:01.479Z,45.68
2019-03-03T08:18:32.818Z,45.33
2019-03-03T08:21:03.991Z,45.30
2019-03-03T08:23:35.209Z,45.03
2019-03-03T08:26:06.379Z,44.05
2019-03-03T08:28:37.551Z,44.48
2019-03-03T08:31:08.810Z,44.44
2019-03-03T08:33:40.098Z,44.50
2019-03-03T08:36:11.156Z,43.53
2019-03-03T08:38:42.511Z,43.75
2019-03-03T08:41:14.282Z,43.51
2019-03-03T08:43:47.101Z,42.23
2019-03-03T08:46:34.721Z,40.77
2019-03-03T08:49:10.184Z,39.41
2019-03-03T08:51:54.745Z,39.63
2019-03-03T08:54:27.552Z,39.74
2019-03-03T08:57:00.343Z,39.56
2019-03-03T08:59:36.500Z,39.51
2019-03-03T09:02:12.325Z,38.62
2019-03-03T09:04:54.522Z,38.04
2019-03-03T09:07:27.259Z,36.90
2019-03-03T09:10:00.040Z,37.04
2019-03-03T09:12:34.109Z,37.47
2019-03-03T09:15:18.773Z,37.90
2019-03-03T09:18:01.022Z,37.61
2019-03-03T09:20:50.088Z,37.99
2019-03-03T09:23:40.687Z,38.73
2019-03-03T09:26:25.812Z,38.41
2019-03-03T09:29:07.538Z,37.89
2019-03-03T09:31:58.431Z,36.22
2019-03-03T09:34:31.592Z,36.78
2019-03-03T09:37:07.598Z,37.26
2019-03-03T09:39:50.122Z,37.11
2019-03-03T09:42:25.360Z,37.10
2019-03-03T09:45:07.120Z,36.54
2019-03-03T09:47:39.831Z,37.34
2019-03-03T09:50:15.896Z,36.64
2019-03-03T09:52:54.360Z,36.21
2019-03-03T09:55:27.310Z,35.67
2019-03-03T09:57:59.973Z,36.31
2019-03-03T10:00:35.476Z,36.95
2019-03-03T10:03:20.940Z,36.54
2019-03-03T10:06:07.587Z,36.10
2019-03-03T10:08:57.713Z,37.12
2019-03-03T10:11:35.916Z,37.07
2019-03-03T10:14:17.391Z,37.33
2019-03-03T10:17:04.490Z,37.21
2019-03-03T10:19:37.351Z,35.74
2019-03-03T10:22:13.132Z,36.06
2019-03-03T10:24:54.968Z,35.89
2019-03-03T10:27:33.881Z,36.58
2019-03-03T10:30:12.878Z,36.21
2019-03-03T10:32:48.850Z,36.70
2019-03-03T10:35:23.957Z,37.24
2019-03-03T10:38:05.768Z,37.90
2019-03-03T10:40:38.592Z,38.57
2019-03-03T10:43:12.536Z,38.54
2019-03-03T10:45:51.289Z,37.98
2019-03-03T10:48:31.957Z,37.72
2019-03-03T10:51:04.798Z,38.32
2019-03-03T10:53:40.516Z,37.42
2019-03-03T10:56:21.973Z,37.76
2019-03-03T10:59:03.358Z,37.08
2019-03-03T11:01:38.761Z,36.82
2019-03-03T11:04:26.630Z,36.52
2019-03-03T11:07:08.163Z,36.30
2019-03-03T11:09:53.108Z,37.41
2019-03-03T11:12:42.724Z,37.70
2019-03-03T11:15:28.373Z,37.15
2019-03-03T11:18:06.849Z,38.40
2019-03-03T11:20:42.630Z,38.09
2019-03-03T11:23:18.362Z,37.77
2019-03-03T11:26:01.048Z,38.02
2019-03-03T11:28:37.296Z,38.13
2019-03-03T11:31:10.155Z,36.79
2019-03-03T11:33:52.221Z,36.37
2019-03-03T11:36:31.621Z,36.20
2019-03-03T11:39:16.431Z,36.04
2019-03-03T11:42:01.522Z,35.79
2019-03-03T11:44:44.692Z,35.98
2019-03-03T11:47:23.748Z,35.93
2019-03-03T11:50:05.696Z,36.04
2019-03-03T11:52:52.204Z,36.30
2019-03-03T11:55:25.190Z,36.26
2019-03-03T11:58:01.076Z,35.60
2019-03-03T12:00:37.002Z,36.00
2019-03-03T12:03:15.749Z,35.20
2019-03-03T12:05:51.126Z,35.12
2019-03-03T12:08:29.505Z,35.31
2019-03-03T12:11:11.076Z,35.12
2019-03-03T12:13:43.882Z,35.53
2019-03-03T12:16:19.784Z,34.94
2019-03-03T12:18:55.754Z,34.86
2019-03-03T12:21:35.825Z,34.63
2019-03-03T12:24:09.103Z,35.14
2019-03-03T12:26:47.889Z,34.84
2019-03-03T12:29:38.263Z,35.24
2019-03-03T12:32:23.885Z,34.99
2019-03-03T12:35:12.458Z,35.37
2019-03-03T12:38:12.701Z,35.20
2019-03-03T12:40:48.449Z,35.15
2019-03-03T12:43:27.785Z,34.19
2019-03-03T12:46:02.280Z,34.26
2019-03-03T12:48:43.977Z,34.27
2019-03-03T12:51:16.666Z,34.24
2019-03-03T12:53:55.673Z,35.22
2019-03-03T12:56:37.734Z,35.21
2019-03-03T12:59:26.850Z,34.89
2019-03-03T13:01:59.691Z,34.67
2019-03-03T13:04:42.152Z,34.63
2019-03-03T13:07:15.926Z,34.49
2019-03-03T13:09:55.708Z,34.32
2019-03-03T13:12:31.588Z,33.95
2019-03-03T13:15:10.246Z,33.84
2019-03-03T13:17:48.154Z,33.88
2019-03-03T13:20:33.699Z,34.05
2019-03-03T13:23:12.686Z,34.43
2019-03-03T13:25:55.751Z,34.07
2019-03-03T13:28:40.537Z,34.16
2019-03-03T13:31:16.179Z,34.23
2019-03-03T13:33:52.284Z,34.27
2019-03-03T13:36:29.471Z,34.12
2019-03-03T13:39:17.552Z,34.10
2019-03-03T13:41:59.358Z,34.29
2019-03-03T13:44:31.220Z,33.85
2019-03-03T13:47:02.340Z,33.89
2019-03-03T13:49:33.573Z,33.73
2019-03-03T13:52:05.163Z,33.96
2019-03-03T13:54:36.337Z,33.94
2019-03-03T13:57:07.568Z,34.14
2019-03-03T13:59:38.569Z,34.20
2019-03-03T14:02:09.912Z,34.23
2019-03-03T14:04:40.984Z,34.27
2019-03-03T14:07:12.276Z,34.29
2019-03-03T14:09:44.443Z,34.54
2019-03-03T14:12:15.545Z,34.42
2019-03-03T14:14:46.774Z,34.41
2019-03-03T14:17:18.154Z,33.88
2019-03-03T14:19:50.097Z,34.25
2019-03-03T14:22:21.364Z,34.67
2019-03-03T14:24:52.675Z,34.40
2019-03-03T14:27:25.896Z,34.50
2019-03-03T14:29:58.183Z,34.81
2019-03-03T14:32:29.396Z,34.89
2019-03-03T14:35:02.436Z,35.33
2019-03-03T14:37:34.055Z,35.40
2019-03-03T14:40:14.745Z,35.41
2019-03-03T14:42:46.077Z,35.57
2019-03-03T14:45:18.717Z,35.71
2019-03-03T14:47:51.872Z,35.53
2019-03-03T14:50:23.545Z,35.55
2019-03-03T14:52:56.846Z,36.04
2019-03-03T14:55:28.612Z,36.08
2019-03-03T14:58:00.525Z,36.43
2019-03-03T15:00:34.243Z,36.54
2019-03-03T15:03:08.933Z,36.40
2019-03-03T15:05:41.583Z,36.46
2019-03-03T15:08:13.409Z,36.51
2019-03-03T15:10:45.388Z,36.60
2019-03-03T15:13:16.984Z,37.00
2019-03-03T15:15:48.425Z,37.03
2019-03-03T15:18:19.635Z,36.90
2019-03-03T15:20:50.765Z,37.13
2019-03-03T15:23:21.911Z,37.47
2019-03-03T15:25:53.179Z,37.58
2019-03-03T15:28:24.284Z,37.57
2019-03-03T15:30:55.427Z,37.32
2019-03-03T15:33:26.661Z,37.39
2019-03-03T15:35:57.826Z,37.47
2019-03-03T15:38:29.173Z,37.54
2019-03-03T15:41:00.369Z,37.65
2019-03-03T15:43:31.996Z,38.06
2019-03-03T15:46:03.098Z,37.87
2019-03-03T15:48:34.785Z,38.12
2019-03-03T15:51:05.991Z,38.27
2019-03-03T15:53:37.326Z,38.19
2019-03-03T15:56:08.523Z,38.25
2019-03-03T15:58:39.821Z,38.23
2019-03-03T16:01:13.900Z,38.59
2019-03-03T16:03:45.776Z,38.70
2019-03-03T16:06:16.910Z,38.51
2019-03-03T16:08:49.652Z,38.64
2019-03-03T16:11:20.784Z,38.52
2019-03-03T16:13:52.007Z,38.72
2019-03-03T16:16:23.126Z,38.82
2019-03-03T16:18:54.459Z,38.83
2019-03-03T16:21:26.651Z,38.92
2019-03-03T16:23:58.064Z,39.15
2019-03-03T16:26:29.437Z,39.23
2019-03-03T16:29:00.608Z,39.08
2019-03-03T16:31:35.373Z,39.12
2019-03-03T16:34:06.643Z,39.45
2019-03-03T16:36:37.885Z,39.34
2019-03-03T16:39:08.981Z,39.45
2019-03-03T16:41:41.977Z,39.48
2019-03-03T16:44:13.809Z,39.60
2019-03-03T16:46:44.970Z,39.72
2019-03-03T16:49:16.266Z,39.69
2019-03-03T16:51:48.580Z,39.32
2019-03-03T16:54:23.877Z,39.55
2019-03-03T16:56:55.004Z,39.41
2019-03-03T16:59:26.305Z,39.57
2019-03-03T17:01:57.660Z,39.49
2019-03-03T17:04:28.906Z,39.36
2019-03-03T17:07:00.393Z,39.49
2019-03-03T17:09:31.884Z,39.55
2019-03-03T17:12:04.693Z,39.51
2019-03-03T17:14:36.054Z,40.00
2019-03-03T17:17:07.391Z,39.81
2019-03-03T17:19:38.812Z,40.24
2019-03-03T17:22:10.420Z,40.37
2019-03-03T17:24:42.004Z,40.29
2019-03-03T17:27:13.208Z,40.80
2019-03-03T17:29:46.607Z,40.40
2019-03-03T17:32:18.862Z,40.53
2019-03-03T17:34:50.087Z,40.89
2019-03-03T17:37:21.265Z,41.00
2019-03-03T17:39:52.557Z,40.77
2019-03-03T17:42:23.840Z,40.68
2019-03-03T17:44:55.067Z,40.73
2019-03-03T17:47:26.211Z,41.00
2019-03-03T17:49:59.131Z,40.84
2019-03-03T17:52:35.753Z,41.14
2019-03-03T17:55:07.546Z,41.25
2019-03-03T17:57:38.734Z,41.44
2019-03-03T18:00:19.954Z,41.25
2019-03-03T18:02:58.759Z,41.64
2019-03-03T18:05:30.095Z,41.60
2019-03-03T18:08:01.443Z,41.68
2019-03-03T18:10:33.558Z,41.93
2019-03-03T18:13:05.480Z,41.96
2019-03-03T18:15:36.748Z,42.29
2019-03-03T18:18:07.828Z,42.28
2019-03-03T18:20:40.680Z,42.51
2019-03-03T18:23:11.715Z,42.58
2019-03-03T18:25:43.070Z,42.95
2019-03-03T18:28:15.559Z,42.75
2019-03-03T18:30:46.688Z,43.12
2019-03-03T18:33:17.783Z,43.16
2019-03-03T18:35:48.963Z,43.08
2019-03-03T18:38:20.095Z,43.10
2019-03-03T18:40:51.276Z,43.10
2019-03-03T18:43:22.536Z,42.94
2019-03-03T18:45:53.927Z,42.98
2019-03-03T18:48:25.329Z,43.28
2019-03-03T18:50:56.521Z,43.21
2019-03-03T18:53:28.563Z,43.03
2019-03-03T18:55:59.868Z,43.52
2019-03-03T18:58:31.159Z,43.28
2019-03-03T19:01:02.424Z,43.52
2019-03-03T19:03:33.547Z,43.39
2019-03-03T19:06:04.739Z,43.52
2019-03-03T19:08:36.059Z,43.57
2019-03-03T19:11:07.275Z,43.49
2019-03-03T19:13:39.508Z,43.45
2019-03-03T19:16:10.753Z,43.45
2019-03-03T19:18:41.980Z,43.71
2019-03-03T19:21:13.086Z,43.77
2019-03-03T19:23:45.146Z,43.85
2019-03-03T19:26:16.473Z,44.26
2019-03-03T19:28:47.697Z,44.15
2019-03-03T19:31:20.865Z,44.36
2019-03-03T19:33:55.005Z,44.45
2019-03-03T19:36:26.155Z,44.57
2019-03-03T19:38:57.498Z,44.74
2019-03-03T19:41:28.751Z,45.06
2019-03-03T19:44:01.995Z,45.00
2019-03-03T19:46:33.347Z,45.48
2019-03-03T19:49:04.575Z,45.15
2019-03-03T19:51:35.731Z,45.43
2019-03-03T19:54:07.817Z,45.40
2019-03-03T19:56:39.319Z,45.54
2019-03-03T19:59:10.510Z,45.56
2019-03-03T20:01:41.698Z,45.68
2019-03-03T20:04:13.021Z,45.63
2019-03-03T20:06:44.449Z,46.00
2019-03-03T20:09:20.224Z,45.80
2019-03-03T20:11:51.696Z,45.97
2019-03-03T20:14:24.608Z,46.36
2019-03-03T20:16:56.252Z,46.27
2019-03-03T20:19:27.707Z,46.61
2019-03-03T20:21:59.343Z,46.75
2019-03-03T20:24:32.754Z,47.11
2019-03-03T20:27:04.268Z,47.27
2019-03-03T20:29:37.024Z,47.48
2019-03-03T20:32:12.238Z,47.54
2019-03-03T20:34:44.071Z,48.08
2019-03-03T20:37:15.435Z,48.41
2019-03-03T20:39:46.854Z,48.64
2019-03-03T20:42:19.898Z,49.29
2019-03-03T20:44:51.262Z,49.22
2019-03-03T20:47:22.643Z,49.86
2019-03-03T20:49:54.051Z,50.30
2019-03-03T20:52:25.620Z,50.60
2019-03-03T20:54:57.247Z,50.76
2019-03-03T20:57:29.121Z,51.29
2019-03-03T21:00:00.558Z,51.62
2019-03-03T21:02:32.978Z,51.83
2019-03-03T21:05:09.928Z,52.48
2019-03-03T21:07:50.636Z,52.70
2019-03-03T21:10:16.620Z,53.01
2019-03-03T21:12:49.193Z,53.10
2019-03-03T21:15:23.895Z,53.35
2019-03-03T21:17:56.670Z,53.73
2019-03-03T21:20:29.785Z,54.04
2019-03-03T21:23:01.941Z,54.36
2019-03-03T21:25:33.279Z,54.52
2019-03-03T21:28:05.927Z,54.69
2019-03-03T21:30:45.382Z,54.89
2019-03-03T21:33:23.203Z,55.05
2019-03-03T21:35:54.390Z,55.42
2019-03-03T21:38:26.252Z,55.75
2019-03-03T21:40:57.683Z,55.82
2019-03-03T21:43:32.017Z,56.02
2019-03-03T21:46:03.254Z,56.10
2019-03-03T21:48:36.340Z,56.09
2019-03-03T21:51:07.481Z,56.29
2019-03-03T21:53:42.862Z,56.32
2019-03-03T21:56:14.158Z,56.23
2019-03-03T21:58:45.496Z,56.06
2019-03-03T22:01:17.010Z,56.20
2019-03-03T22:03:52.401Z,56.46
2019-03-03T22:06:26.887Z,56.29
2019-03-03T22:09:00.617Z,56.55
2019-03-03T22:11:34.920Z,56.57
2019-03-03T22:14:06.465Z,56.57
2019-03-03T22:16:37.675Z,56.68
2019-03-03T22:19:08.960Z,56.78
2019-03-03T22:21:40.318Z,56.90
2019-03-03T22:24:11.664Z,56.99
2019-03-03T22:26:43.478Z,57.31
2019-03-03T22:29:19.397Z,57.28
2019-03-03T22:31:50.903Z,57.21
2019-03-03T22:34:22.210Z,57.47
2019-03-03T22:36:53.784Z,57.60
2019-03-03T22:39:25.441Z,57.44
2019-03-03T22:41:58.216Z,57.64
2019-03-03T22:44:29.575Z,57.60
2019-03-03T22:47:03.785Z,57.65
2019-03-03T22:49:35.212Z,57.70
2019-03-03T22:52:06.438Z,57.94
2019-03-03T22:54:42.146Z,57.94
2019-03-03T22:57:22.009Z,57.77
2019-03-03T22:59:56.255Z,58.21
2019-03-03T23:02:27.585Z,58.16
2019-03-03T23:05:21.465Z,58.44
2019-03-03T23:07:56.207Z,58.49
2019-03-03T23:10:41.276Z,58.56
2019-03-03T23:13:24.794Z,58.52
2019-03-03T23:16:32.689Z,58.71
2019-03-03T23:19:19.173Z,58.70
2019-03-03T23:22:12.715Z,58.65
2019-03-03T23:25:05.282Z,58.89
2019-03-03T23:27:36.482Z,58.83
2019-03-03T23:30:08.881Z,58.65
2019-03-03T23:32:40.112Z,58.84
2019-03-03T23:35:11.363Z,58.72
2019-03-03T23:37:42.632Z,58.88
2019-03-03T23:40:15.059Z,59.17
2019-03-03T23:42:46.318Z,58.98
2019-03-03T23:45:17.469Z,59.12
2019-03-03T23:47:48.587Z,59.42
2019-03-03T23:50:20.774Z,59.42
2019-03-03T23:52:51.823Z,59.87
2019-03-03T23:55:22.936Z,59.97
2019-03-03T23:57:54.182Z,60.38
